Time;durP1;ratioP1;P1;durP2;ratioP2;P2;SDS_P1;SDS_P2;PMS_P1;PMS_P2;Temp;Humidity;BMP_temperature;BMP_pressure;BME280_temperature;BME280_humidity;BME280_pressure;Samples;Min_cycle;Max_cycle;Signal;HPM_P1;HPM_P2
2022/04/02 00:01:28;;;;;;;4.38;2.58;;;4.40;69.90;;;;;;5023232;28;20021;-74
2022/04/02 00:03:54;;;;;;;3.95;2.10;;;4.40;69.70;;;;;;5036088;28;20040;-76
2022/04/02 00:06:20;;;;;;;4.75;1.85;;;4.30;70.00;;;;;;5036214;28;20051;-74
2022/04/02 00:08:45;;;;;;;3.55;2.13;;;4.40;69.90;;;;;;5030369;28;20033;-74
2022/04/02 00:11:11;;;;;;;4.65;2.33;;;4.40;69.20;;;;;;5014911;28;20034;-74
2022/04/02 00:13:38;;;;;;;5.78;2.50;;;4.40;69.50;;;;;;5015046;28;20057;-74
2022/04/02 00:16:05;;;;;;;4.03;2.38;;;4.40;69.00;;;;;;5015940;28;20053;-74
2022/04/02 00:18:30;;;;;;;5.60;2.42;;;4.50;68.40;;;;;;5035631;28;20057;-74
2022/04/02 00:20:57;;;;;;;5.07;2.63;;;4.50;68.60;;;;;;5033653;28;20029;-74
2022/04/02 00:23:43;;;;;;;3.08;2.40;;;4.40;68.80;;;;;;5035842;28;20030;-74
2022/04/02 00:26:12;;;;;;;4.75;2.80;;;4.50;69.00;;;;;;5025592;28;20021;-74
2022/04/02 00:28:39;;;;;;;3.08;2.30;;;4.40;69.70;;;;;;5016218;28;20389;-74
2022/04/02 00:31:10;;;;;;;4.93;2.65;;;4.40;69.90;;;;;;5034221;28;20029;-74
2022/04/02 00:33:36;;;;;;;3.53;2.40;;;4.40;69.60;;;;;;5034323;28;20038;-74
2022/04/02 00:36:03;;;;;;;7.38;2.70;;;4.30;69.10;;;;;;5026934;28;20045;-74
2022/04/02 00:38:29;;;;;;;2.42;1.88;;;4.30;69.00;;;;;;5014561;28;20193;-74
2022/04/02 00:40:54;;;;;;;6.18;2.47;;;4.40;68.80;;;;;;5014113;28;20061;-74
2022/04/02 00:43:28;;;;;;;2.53;2.17;;;4.40;69.10;;;;;;5014198;28;20030;-73
2022/04/02 00:45:56;;;;;;;5.18;2.28;;;4.40;68.90;;;;;;5015689;28;20072;-74
2022/04/02 00:48:23;;;;;;;6.20;2.40;;;4.40;69.00;;;;;;5029756;28;20439;-74
2022/04/02 00:50:57;;;;;;;3.95;2.20;;;4.40;70.00;;;;;;5034001;28;20128;-76
2022/04/02 00:53:24;;;;;;;3.40;2.22;;;4.40;70.00;;;;;;5034180;28;20080;-74
2022/04/02 00:55:50;;;;;;;4.28;3.17;;;4.30;70.60;;;;;;5034940;28;20028;-74
2022/04/02 00:58:16;;;;;;;5.45;3.63;;;4.30;70.20;;;;;;5033973;28;20078;-74
2022/04/02 01:00:43;;;;;;;3.78;2.80;;;4.30;70.10;;;;;;5035163;28;20018;-76
2022/04/02 01:03:11;;;;;;;4.47;2.58;;;4.30;69.70;;;;;;5034039;28;20133;-74
2022/04/02 01:05:38;;;;;;;4.40;2.63;;;4.30;69.70;;;;;;5035214;28;20029;-74
2022/04/02 01:08:05;;;;;;;4.13;2.63;;;4.30;69.80;;;;;;5033897;28;20033;-74
2022/04/02 01:10:36;;;;;;;4.13;2.53;;;4.20;69.90;;;;;;5023228;28;20026;-74
2022/04/02 01:13:02;;;;;;;2.65;2.42;;;4.30;70.10;;;;;;5014230;28;20037;-74
2022/04/02 01:15:28;;;;;;;2.42;2.22;;;4.30;70.10;;;;;;5013584;28;20152;-74
2022/04/02 01:17:54;;;;;;;3.88;2.50;;;4.40;69.70;;;;;;5013750;28;20064;-74
2022/04/02 01:20:19;;;;;;;7.85;3.85;;;4.40;69.80;;;;;;5014025;28;20026;-74
2022/04/02 01:22:48;;;;;;;3.00;2.70;;;4.50;69.60;;;;;;5015381;28;20049;-74
2022/04/02 01:25:15;;;;;;;2.72;2.50;;;4.60;69.30;;;;;;5013644;28;20053;-74
2022/04/02 01:27:41;;;;;;;4.18;3.17;;;4.50;69.60;;;;;;5015064;28;20038;-74
2022/04/02 01:30:08;;;;;;;6.53;2.58;;;4.50;69.60;;;;;;5015069;28;20084;-74
2022/04/02 01:32:33;;;;;;;5.35;2.80;;;4.50;69.80;;;;;;5015550;28;20651;-74
2022/04/02 01:34:59;;;;;;;8.90;2.72;;;4.30;70.10;;;;;;5030996;28;20032;-74
2022/04/02 01:37:25;;;;;;;4.18;2.92;;;4.20;70.20;;;;;;5037704;28;20042;-74
2022/04/02 01:39:51;;;;;;;6.22;3.13;;;4.20;70.70;;;;;;5027827;28;20492;-74
2022/04/02 01:42:24;;;;;;;5.47;2.78;;;4.10;71.00;;;;;;5033053;28;20052;-74
2022/04/02 01:44:51;;;;;;;6.53;2.90;;;4.10;71.30;;;;;;5019106;28;20500;-74
2022/04/02 01:47:21;;;;;;;8.80;3.20;;;4.10;71.10;;;;;;5022721;28;20048;-74
2022/04/02 01:49:47;;;;;;;5.20;3.10;;;4.10;71.10;;;;;;5038746;28;20561;-74
2022/04/02 01:52:16;;;;;;;4.97;2.78;;;4.10;71.30;;;;;;5038777;28;20061;-74
2022/04/02 01:54:46;;;;;;;5.55;2.70;;;4.10;71.10;;;;;;5034196;28;20388;-74
2022/04/02 01:57:12;;;;;;;5.67;2.90;;;4.10;71.10;;;;;;5018707;28;20030;-74
2022/04/02 01:59:44;;;;;;;5.47;2.92;;;4.10;71.10;;;;;;5024644;28;20294;-74
2022/04/02 02:02:10;;;;;;;5.15;2.80;;;4.10;71.20;;;;;;5037278;28;20040;-76
2022/04/02 02:04:39;;;;;;;4.10;2.75;;;4.10;71.30;;;;;;5036968;28;20021;-76
2022/04/02 02:07:06;;;;;;;2.83;2.40;;;4.00;71.40;;;;;;5038585;28;20029;-76
2022/04/02 02:09:33;;;;;;;2.97;2.72;;;4.00;71.80;;;;;;5037099;28;20057;-77
2022/04/02 02:11:59;;;;;;;4.63;2.90;;;3.90;71.70;;;;;;5022040;28;20032;-76
2022/04/02 02:14:26;;;;;;;6.75;3.35;;;4.00;71.40;;;;;;5018274;28;20133;-76
2022/04/02 02:16:52;;;;;;;5.55;2.85;;;3.90;72.00;;;;;;5018789;28;20041;-76
2022/04/02 02:19:17;;;;;;;3.42;2.65;;;3.80;72.60;;;;;;5018381;28;20033;-76
2022/04/02 02:21:43;;;;;;;6.95;3.20;;;3.80;72.40;;;;;;5016957;28;20067;-76
2022/04/02 02:24:09;;;;;;;4.57;2.75;;;3.80;72.10;;;;;;5018659;28;20018;-76
2022/04/02 02:26:35;;;;;;;5.15;2.55;;;3.80;72.10;;;;;;5016938;28;20104;-76
2022/04/02 02:29:04;;;;;;;4.15;2.80;;;3.80;71.90;;;;;;5018284;28;20034;-77
2022/04/02 02:31:31;;;;;;;3.83;3.20;;;3.80;72.50;;;;;;5017003;28;20567;-76
2022/04/02 02:36:41;;;;;;;5.03;2.58;;;3.70;72.10;;;;;;5018372;28;20115;-76
2022/04/02 02:39:06;;;;;;;3.88;2.67;;;3.70;72.20;;;;;;5034902;28;20034;-74
2022/04/02 02:41:32;;;;;;;3.22;2.63;;;3.70;72.20;;;;;;5036324;28;20171;-74
2022/04/02 02:43:58;;;;;;;3.45;2.92;;;3.70;72.30;;;;;;5037076;28;20033;-74
2022/04/02 02:46:23;;;;;;;3.50;2.85;;;3.60;72.40;;;;;;5031103;28;20082;-74
2022/04/02 02:48:49;;;;;;;5.72;2.92;;;3.60;72.20;;;;;;5035640;28;20060;-74
2022/04/02 02:51:15;;;;;;;9.23;3.33;;;3.50;72.20;;;;;;5037629;28;20487;-74
2022/04/02 02:53:41;;;;;;;4.00;3.03;;;3.50;72.50;;;;;;5033837;28;20018;-74
2022/04/02 02:56:07;;;;;;;3.03;2.70;;;3.50;72.70;;;;;;5016443;28;20025;-74
2022/04/02 02:58:32;;;;;;;4.28;2.72;;;3.50;73.10;;;;;;5017584;28;20071;-74
2022/04/02 03:00:58;;;;;;;6.97;3.25;;;3.50;73.20;;;;;;5017756;28;20060;-75
2022/04/02 03:03:24;;;;;;;4.65;3.03;;;3.50;72.70;;;;;;5017693;28;20523;-75
2022/04/02 03:05:50;;;;;;;5.72;2.70;;;3.40;72.90;;;;;;5016088;28;20073;-74
2022/04/02 03:08:16;;;;;;;3.42;3.10;;;3.40;72.70;;;;;;5017580;28;20089;-74
2022/04/02 03:10:44;;;;;;;4.53;3.28;;;3.40;72.90;;;;;;5017602;28;20026;-74
2022/04/02 03:13:11;;;;;;;4.75;3.13;;;3.40;72.90;;;;;;5017490;28;20562;-74
2022/04/02 03:15:37;;;;;;;3.30;3.00;;;3.40;73.00;;;;;;5015776;28;20057;-74
2022/04/02 03:18:05;;;;;;;3.33;3.03;;;3.40;72.80;;;;;;5016232;28;20048;-74
2022/04/02 03:20:30;;;;;;;3.90;3.25;;;3.30;72.90;;;;;;5015970;28;20052;-74
2022/04/02 03:22:56;;;;;;;3.35;2.92;;;3.30;72.90;;;;;;5017246;28;20030;-74
2022/04/02 03:25:22;;;;;;;3.33;2.83;;;3.30;72.70;;;;;;5015941;28;20034;-74
2022/04/02 03:27:48;;;;;;;5.63;3.10;;;3.30;72.50;;;;;;5015766;28;20064;-75
2022/04/02 03:30:17;;;;;;;3.78;2.60;;;3.40;72.90;;;;;;5017128;28;20685;-74
2022/04/02 03:32:42;;;;;;;10.43;4.00;;;3.30;72.70;;;;;;5017136;28;20026;-74
2022/04/02 03:35:10;;;;;;;3.70;2.75;;;3.30;72.80;;;;;;5016673;28;20041;-74
2022/04/02 03:37:37;;;;;;;5.90;3.13;;;3.30;72.80;;;;;;5016825;28;20029;-74
2022/04/02 03:40:09;;;;;;;5.50;3.10;;;3.30;72.80;;;;;;5016795;28;20715;-74
2022/04/02 03:42:38;;;;;;;3.95;3.22;;;3.30;72.70;;;;;;5017003;28;20129;-75
2022/04/02 03:45:05;;;;;;;3.92;3.30;;;3.20;72.60;;;;;;5015735;28;20029;-74
2022/04/02 03:47:31;;;;;;;4.50;3.33;;;3.40;72.80;;;;;;5019285;28;20030;-74
2022/04/02 03:49:57;;;;;;;6.97;3.45;;;3.40;72.80;;;;;;5016784;28;20349;-75
2022/04/02 03:52:23;;;;;;;4.80;3.25;;;3.50;72.90;;;;;;5016352;28;20029;-75
2022/04/02 03:54:49;;;;;;;6.25;4.22;;;3.50;73.30;;;;;;5016364;28;20555;-74
2022/04/02 03:57:15;;;;;;;3.25;2.50;;;3.40;73.40;;;;;;5031014;28;20045;-74
2022/04/02 03:59:42;;;;;;;5.18;3.50;;;3.50;73.50;;;;;;5035338;28;20021;-74
2022/04/02 04:02:09;;;;;;;3.97;3.00;;;3.40;73.50;;;;;;5015134;28;20029;-74
2022/04/02 04:04:39;;;;;;;4.93;3.22;;;3.40;73.60;;;;;;5016819;28;20026;-74
2022/04/02 04:07:05;;;;;;;4.25;2.88;;;3.40;73.70;;;;;;5016341;28;20045;-74
2022/04/02 04:09:30;;;;;;;4.47;3.25;;;3.40;73.40;;;;;;5014976;28;20037;-74
2022/04/02 04:11:57;;;;;;;3.22;2.72;;;3.40;73.30;;;;;;5015980;28;20026;-75
2022/04/02 04:14:24;;;;;;;3.65;3.15;;;3.40;73.70;;;;;;5015092;28;20125;-74
2022/04/02 04:16:51;;;;;;;3.83;3.28;;;3.30;73.60;;;;;;5015834;28;20408;-75
2022/04/02 04:19:16;;;;;;;5.25;3.22;;;3.30;73.60;;;;;;5015012;28;20500;-74
2022/04/02 04:21:43;;;;;;;6.07;2.72;;;3.20;73.90;;;;;;5014970;28;20030;-74
2022/04/02 04:24:10;;;;;;;3.28;2.97;;;3.20;74.10;;;;;;5014748;28;20050;-75
2022/04/02 04:26:36;;;;;;;7.07;3.08;;;3.20;74.00;;;;;;5014678;28;20416;-74
2022/04/02 04:29:02;;;;;;;4.88;3.40;;;3.20;73.70;;;;;;5015873;28;20473;-74
2022/04/02 04:31:28;;;;;;;5.70;3.72;;;3.20;73.60;;;;;;5015842;28;20068;-75
2022/04/02 04:33:53;;;;;;;5.07;3.15;;;3.20;73.60;;;;;;5016028;28;20103;-75
2022/04/02 04:36:20;;;;;;;5.25;3.58;;;3.20;73.50;;;;;;5015976;28;20034;-75
2022/04/02 04:38:46;;;;;;;4.00;3.55;;;3.20;73.60;;;;;;5015917;28;20022;-74
2022/04/02 04:41:13;;;;;;;4.85;3.70;;;3.10;74.10;;;;;;5015753;28;20028;-75
2022/04/02 04:43:41;;;;;;;4.07;3.63;;;3.10;74.40;;;;;;5015890;28;20080;-74
2022/04/02 04:46:08;;;;;;;6.03;3.67;;;3.10;74.70;;;;;;5015385;28;20115;-74
2022/04/02 04:48:35;;;;;;;6.13;3.50;;;3.10;74.40;;;;;;5026553;28;20032;-74
2022/04/02 04:51:02;;;;;;;8.18;3.72;;;3.00;74.30;;;;;;5015701;28;20054;-75
2022/04/02 04:53:27;;;;;;;8.55;4.18;;;3.00;74.30;;;;;;5014418;28;20100;-74
2022/04/02 04:55:53;;;;;;;8.32;4.18;;;2.90;74.10;;;;;;5015386;28;20026;-75
2022/04/02 04:58:19;;;;;;;6.25;4.68;;;2.90;74.40;;;;;;5015707;28;20109;-74
2022/04/02 05:00:45;;;;;;;6.70;3.83;;;2.90;74.20;;;;;;5029995;28;20071;-74
2022/04/02 05:03:10;;;;;;;7.18;3.85;;;2.80;74.20;;;;;;5028781;28;20018;-74
2022/04/02 05:05:37;;;;;;;5.07;3.70;;;2.80;74.10;;;;;;5025190;28;20072;-74
2022/04/02 05:08:03;;;;;;;5.85;3.97;;;2.80;74.20;;;;;;5028227;28;20105;-75
2022/04/02 05:10:30;;;;;;;6.78;3.88;;;2.80;74.40;;;;;;5035059;28;20017;-74
2022/04/02 05:12:56;;;;;;;6.28;3.95;;;2.80;74.30;;;;;;5016740;28;20017;-74
2022/04/02 05:15:21;;;;;;;5.93;4.03;;;2.80;74.30;;;;;;5015273;28;20056;-74
2022/04/02 05:17:48;;;;;;;5.82;4.35;;;2.80;74.40;;;;;;5015396;28;20050;-74
2022/04/02 05:20:14;;;;;;;5.15;4.00;;;2.80;74.60;;;;;;5022137;28;20037;-74
2022/04/02 05:22:44;;;;;;;6.00;3.40;;;2.70;74.40;;;;;;5014853;28;20108;-75
2022/04/02 05:25:10;;;;;;;3.80;3.50;;;2.70;74.50;;;;;;5013844;28;20030;-74
2022/04/02 05:27:36;;;;;;;7.05;3.90;;;2.70;74.70;;;;;;5025106;28;20033;-75
2022/04/02 05:30:03;;;;;;;6.00;3.80;;;2.70;74.60;;;;;;5034856;28;20039;-74
2022/04/02 05:32:30;;;;;;;7.10;4.68;;;2.70;74.70;;;;;;5034207;28;20101;-74
2022/04/02 05:34:56;;;;;;;4.55;3.60;;;2.70;74.80;;;;;;5034453;28;20036;-74
2022/04/02 05:37:23;;;;;;;6.40;4.63;;;2.70;74.70;;;;;;5032025;28;20472;-74
2022/04/02 05:39:49;;;;;;;7.55;3.83;;;2.70;75.10;;;;;;5034588;28;20121;-74
2022/04/02 05:42:14;;;;;;;8.45;4.22;;;2.70;75.10;;;;;;5034694;28;20110;-74
2022/04/02 05:44:40;;;;;;;6.05;3.92;;;2.70;75.00;;;;;;5028040;28;20022;-75
2022/04/02 05:47:06;;;;;;;6.40;4.10;;;2.70;75.30;;;;;;5018754;28;20026;-74
2022/04/02 05:49:32;;;;;;;9.52;4.22;;;2.70;75.20;;;;;;5034808;28;20061;-75
2022/04/02 05:51:58;;;;;;;5.43;3.97;;;2.70;75.10;;;;;;5033468;28;20029;-74
2022/04/02 05:54:24;;;;;;;6.47;4.20;;;2.70;75.10;;;;;;5033431;28;20033;-75
2022/04/02 05:56:52;;;;;;;6.68;3.83;;;2.70;75.30;;;;;;5034472;28;20030;-75
2022/04/02 05:59:18;;;;;;;8.13;4.22;;;2.70;75.30;;;;;;5033084;28;20021;-75
2022/04/02 06:01:44;;;;;;;8.88;4.25;;;2.70;75.20;;;;;;5033400;28;20021;-75
2022/04/02 06:04:11;;;;;;;4.97;3.60;;;2.70;75.50;;;;;;5034534;28;20034;-74
2022/04/02 06:06:37;;;;;;;7.80;4.20;;;2.80;75.10;;;;;;5033204;28;20030;-74
2022/04/02 06:09:03;;;;;;;5.15;3.72;;;2.80;74.90;;;;;;5034205;28;20032;-74
2022/04/02 06:11:30;;;;;;;4.65;3.83;;;2.80;75.00;;;;;;5025763;28;20025;-75
2022/04/02 06:13:56;;;;;;;6.90;3.80;;;2.80;74.80;;;;;;5034473;28;20041;-75
2022/04/02 15:15:30;;;;;;;2.92;1.17;;;8.40;50.80;;;;;;5117944;27;20418;-79
2022/04/02 15:18:01;;;;;;;2.53;1.70;;;8.60;48.60;;;;;;5089017;28;20150;-79
2022/04/02 15:20:28;;;;;;;1.85;1.30;;;9.10;48.50;;;;;;5123955;28;20016;-79
2022/04/02 15:23:16;;;;;;;5.15;2.40;;;9.70;45.00;;;;;;5088418;28;20398;-78
2022/04/02 15:25:46;;;;;;;4.32;1.27;;;10.40;42.70;;;;;;5089528;28;20074;-76
2022/04/02 15:28:23;;;;;;;4.32;2.40;;;11.00;41.00;;;;;;5089959;28;20028;-75
2022/04/02 15:30:53;;;;;;;6.53;2.78;;;11.30;40.20;;;;;;5087021;28;20035;-75
2022/04/02 15:33:25;;;;;;;3.35;1.30;;;11.70;39.50;;;;;;5088490;28;20040;-76
2022/04/02 15:35:52;;;;;;;2.13;0.98;;;11.80;42.50;;;;;;5089655;28;20458;-75
2022/04/02 15:38:27;;;;;;;1.77;0.98;;;11.50;40.60;;;;;;5089622;28;20547;-76
2022/04/02 15:41:06;;;;;;;2.92;1.40;;;11.40;43.00;;;;;;5084973;28;20027;-74
2022/04/02 15:43:35;;;;;;;2.95;1.83;;;11.10;40.60;;;;;;5075612;28;20039;-76
2022/04/02 15:46:27;;;;;;;2.65;1.25;;;10.60;41.60;;;;;;5080256;28;20646;-75
2022/04/02 15:49:13;;;;;;;2.00;1.40;;;10.30;42.50;;;;;;5087000;28;20107;-75
2022/04/02 15:51:47;;;;;;;2.42;1.17;;;10.20;42.80;;;;;;5088958;28;20035;-75
2022/04/02 15:54:38;;;;;;;3.97;1.88;;;10.30;42.60;;;;;;5087694;28;20425;-74
2022/04/02 15:57:08;;;;;;;10.90;4.93;;;10.40;42.80;;;;;;5103753;28;20012;-75
2022/04/02 15:59:39;;;;;;;3.30;2.20;;;10.20;46.50;;;;;;5088581;28;20032;-74
2022/04/02 16:02:26;;;;;;;5.15;1.65;;;10.10;49.10;;;;;;5088195;28;20123;-74
2022/04/02 16:05:27;;;;;;;3.08;1.70;;;10.00;48.70;;;;;;5087996;28;20028;-74
2022/04/02 16:08:06;;;;;;;10.70;5.47;;;10.10;48.40;;;;;;5085272;28;20066;-74
2022/04/02 16:10:32;;;;;;;5.28;2.42;;;9.80;47.60;;;;;;5086614;28;20058;-74
2022/04/02 16:13:17;;;;;;;7.57;2.60;;;9.80;52.40;;;;;;5089655;28;20024;-74
2022/04/02 16:16:04;;;;;;;3.78;2.17;;;9.90;51.90;;;;;;5086341;28;20035;-74
2022/04/02 16:18:30;;;;;;;5.00;2.60;;;10.10;54.60;;;;;;5088751;28;20090;-73
2022/04/02 16:20:56;;;;;;;4.68;3.53;;;10.10;54.40;;;;;;5085465;28;20128;-75
2022/04/02 16:23:27;;;;;;;3.90;2.08;;;9.60;50.60;;;;;;5087191;28;20024;-74
2022/04/02 16:25:55;;;;;;;6.28;2.47;;;9.30;51.70;;;;;;5078034;28;20036;-74
2022/04/02 16:28:23;;;;;;;2.97;1.83;;;9.40;53.10;;;;;;5064600;28;20115;-75
2022/04/02 16:31:01;;;;;;;5.78;2.47;;;9.50;53.10;;;;;;5073341;28;20051;-77
2022/04/02 16:33:28;;;;;;;5.88;2.60;;;9.30;51.60;;;;;;5071837;28;20025;-75
2022/04/02 16:36:02;;;;;;;13.82;5.60;;;9.40;50.80;;;;;;5075332;28;20467;-75
2022/04/02 16:38:29;;;;;;;6.18;2.70;;;9.40;50.50;;;;;;5073400;28;20143;-76
2022/04/02 16:40:57;;;;;;;2.60;2.13;;;9.70;50.50;;;;;;5070601;28;20029;-82
2022/04/02 16:43:23;;;;;;;3.70;1.58;;;9.60;48.60;;;;;;5075790;28;20036;-77
2022/04/02 16:46:07;;;;;;;3.60;1.75;;;9.40;47.20;;;;;;5072294;28;20029;-81
2022/04/02 16:48:33;;;;;;;4.72;1.77;;;9.00;47.00;;;;;;5073413;28;20031;-79
2022/04/02 16:51:07;;;;;;;2.50;1.85;;;8.80;45.50;;;;;;5069762;28;20052;-81
2022/04/02 16:53:33;;;;;;;11.98;6.32;;;8.80;47.80;;;;;;5074592;28;20016;-85
2022/04/02 16:55:59;;;;;;;15.07;7.00;;;8.70;46.40;;;;;;5073093;28;20032;-80
2022/04/02 16:58:25;;;;;;;4.28;2.45;;;8.70;45.90;;;;;;5059565;28;20025;-81
2022/04/02 17:00:51;;;;;;;4.53;2.75;;;8.60;45.40;;;;;;5071515;28;20115;-80
2022/04/02 17:03:21;;;;;;;3.42;2.25;;;8.60;45.70;;;;;;5074503;28;20020;-84
2022/04/02 17:05:48;;;;;;;4.07;3.03;;;8.50;45.00;;;;;;5072099;28;20084;-82
2022/04/02 17:08:17;;;;;;;4.93;2.45;;;8.50;45.40;;;;;;5069526;28;20020;-88
2022/04/02 17:10:54;;;;;;;4.72;2.75;;;8.50;46.20;;;;;;5072390;28;20028;-85
2022/04/02 17:13:24;;;;;;;3.40;2.15;;;8.50;45.60;;;;;;5056552;28;20076;-83
2022/04/02 17:16:04;;;;;;;2.67;1.92;;;8.50;45.80;;;;;;5059085;28;20036;-86
2022/04/02 17:18:32;;;;;;;3.47;2.15;;;8.50;45.00;;;;;;5056755;28;20032;-85
2022/04/02 17:21:13;;;;;;;2.30;1.80;;;8.60;45.90;;;;;;5058006;28;20033;-89
2022/04/02 17:23:40;;;;;;;;;;;8.70;44.90;;;;;;5057952;28;20108;-83
2022/04/02 17:26:27;;;;;;;3.35;2.53;;;8.70;43.60;;;;;;5068741;28;19995;-87
2022/04/02 17:28:53;;;;;;;4.55;3.08;;;8.70;43.10;;;;;;5076424;28;20017;-83
2022/04/02 17:31:32;;;;;;;2.13;1.92;;;8.80;43.90;;;;;;5065240;28;20021;-81
2022/04/02 17:34:17;;;;;;;4.57;1.50;;;8.80;42.60;;;;;;5056933;28;20035;-78
2022/04/02 17:36:42;;;;;;;2.90;2.00;;;8.80;42.10;;;;;;5057084;28;20115;-87
2022/04/02 17:39:13;;;;;;;2.33;1.73;;;8.70;40.30;;;;;;5057556;28;20029;-84
2022/04/02 17:41:39;;;;;;;2.72;2.10;;;8.80;39.90;;;;;;5072155;28;20028;-80
2022/04/02 17:44:25;;;;;;;4.60;2.35;;;8.70;39.60;;;;;;5072950;28;20514;-81
2022/04/02 17:46:59;;;;;;;5.80;2.90;;;8.60;40.20;;;;;;5058492;28;20031;-85
2022/04/02 17:49:33;;;;;;;5.00;2.17;;;8.50;40.60;;;;;;5070874;28;20070;-78
2022/04/02 17:52:00;;;;;;;8.20;3.92;;;8.50;38.70;;;;;;5074287;28;20029;-85
2022/04/02 17:54:45;;;;;;;3.65;1.85;;;8.50;39.80;;;;;;5073518;28;20039;-82
2022/04/02 17:57:11;;;;;;;5.53;3.30;;;8.50;39.70;;;;;;5063912;28;20025;-87
2022/04/02 17:59:49;;;;;;;3.35;2.53;;;8.40;39.60;;;;;;5061820;28;20556;-84
2022/04/02 18:02:16;;;;;;;3.38;2.40;;;8.30;39.80;;;;;;5063945;28;20025;-81
2022/04/02 18:04:43;;;;;;;3.03;2.35;;;8.30;40.50;;;;;;5054928;28;20148;-84
2022/04/02 18:07:19;;;;;;;4.80;2.28;;;8.30;39.90;;;;;;5056208;28;20025;-80
2022/04/02 18:09:45;;;;;;;6.40;2.50;;;8.20;40.30;;;;;;5056133;28;20020;-81
2022/04/02 18:12:10;;;;;;;4.60;2.00;;;8.20;39.90;;;;;;5073847;28;20039;-79
2022/04/02 18:14:36;;;;;;;5.45;2.13;;;8.20;40.20;;;;;;5068598;28;20044;-80
2022/04/02 18:17:02;;;;;;;4.55;1.60;;;8.20;41.20;;;;;;5064043;28;20094;-84
2022/04/02 18:19:28;;;;;;;4.43;2.15;;;8.20;40.90;;;;;;5091601;28;20033;-86
2022/04/02 18:21:53;;;;;;;3.78;1.73;;;8.20;40.50;;;;;;5091754;28;20029;-86
2022/04/02 18:24:22;;;;;;;2.67;1.42;;;7.90;40.50;;;;;;5064078;28;20029;-86
2022/04/02 18:26:48;;;;;;;5.00;2.42;;;7.80;41.30;;;;;;5056125;28;20112;-85
2022/04/02 18:29:13;;;;;;;5.30;1.80;;;7.80;41.30;;;;;;5055952;28;20056;-85
2022/04/02 18:31:39;;;;;;;6.53;3.20;;;7.80;41.80;;;;;;5069060;28;20568;-83
2022/04/02 18:34:04;;;;;;;6.93;2.83;;;7.70;45.90;;;;;;5089223;28;20024;-83
2022/04/02 18:36:30;;;;;;;3.25;1.95;;;7.40;48.00;;;;;;5056342;28;20482;-82
2022/04/02 18:38:56;;;;;;;4.22;2.45;;;7.50;48.00;;;;;;5088379;28;20535;-82
2022/04/02 18:41:22;;;;;;;4.68;2.30;;;7.50;47.80;;;;;;5091205;28;20660;-84
2022/04/02 18:43:48;;;;;;;8.63;2.67;;;7.60;48.20;;;;;;5083530;28;20621;-81
2022/04/02 18:46:14;;;;;;;4.53;2.50;;;7.70;48.20;;;;;;5050571;28;20055;-83
2022/04/02 18:48:39;;;;;;;4.55;2.80;;;7.70;48.40;;;;;;5061109;28;20025;-83
2022/04/02 18:51:05;;;;;;;4.82;2.47;;;7.70;49.20;;;;;;5050795;28;20121;-83
2022/04/02 18:53:30;;;;;;;9.13;3.70;;;7.60;50.00;;;;;;5066164;28;20053;-78
2022/04/02 18:55:56;;;;;;;8.68;3.80;;;7.50;49.40;;;;;;5058160;28;20082;-82
2022/04/02 18:58:22;;;;;;;9.70;5.07;;;7.40;50.20;;;;;;5052690;28;20044;-83
2022/04/02 19:00:49;;;;;;;5.10;2.70;;;7.40;49.80;;;;;;5067584;28;20039;-82
2022/04/02 19:03:15;;;;;;;8.73;3.80;;;7.10;50.40;;;;;;5065773;28;20031;-82
2022/04/02 19:05:41;;;;;;;8.32;4.15;;;7.10;50.80;;;;;;5090553;28;20032;-81
2022/04/02 19:08:09;;;;;;;12.88;5.90;;;7.20;51.60;;;;;;5090761;28;20034;-83
2022/04/02 19:10:35;;;;;;;19.52;8.15;;;7.30;51.00;;;;;;5068744;28;20033;-83
2022/04/02 19:13:01;;;;;;;18.20;8.13;;;7.20;50.70;;;;;;5070639;28;20055;-82
2022/04/02 19:15:26;;;;;;;15.77;7.07;;;7.30;50.80;;;;;;5067821;28;20546;-78
2022/04/02 19:17:52;;;;;;;19.27;7.72;;;7.30;50.80;;;;;;5069563;28;20036;-80
2022/04/02 19:20:17;;;;;;;12.75;5.57;;;7.20;51.10;;;;;;5064218;28;20040;-79
2022/04/02 19:22:44;;;;;;;21.17;8.70;;;7.00;51.00;;;;;;5049772;28;20451;-79
2022/04/02 19:25:11;;;;;;;7.82;4.95;;;7.00;51.40;;;;;;5049402;28;20032;-79
2022/04/02 19:27:37;;;;;;;13.75;6.47;;;7.10;51.00;;;;;;5048390;28;20040;-79
2022/04/02 19:30:04;;;;;;;8.85;5.05;;;7.00;51.10;;;;;;5049001;28;20032;-79
2022/04/02 19:32:30;;;;;;;17.63;8.68;;;6.80;51.30;;;;;;5068671;28;20029;-79
2022/04/02 19:34:56;;;;;;;14.93;7.13;;;6.70;51.50;;;;;;5059091;28;20171;-79
2022/04/02 19:37:21;;;;;;;9.40;5.95;;;6.60;51.50;;;;;;5048555;28;20126;-79
2022/04/02 19:39:47;;;;;;;8.40;4.88;;;6.50;51.90;;;;;;5050318;28;20033;-77
2022/04/02 19:42:13;;;;;;;13.13;6.30;;;6.60;52.80;;;;;;5054228;28;20028;-78
2022/04/02 19:44:39;;;;;;;10.27;6.13;;;6.50;52.60;;;;;;5054211;28;20044;-78
2022/04/02 19:47:05;;;;;;;8.20;5.05;;;6.60;52.20;;;;;;5046006;28;20953;-77
2022/04/02 19:49:31;;;;;;;11.68;7.03;;;6.50;52.30;;;;;;5071078;28;20024;-77
2022/04/02 19:51:58;;;;;;;7.93;3.88;;;6.40;51.90;;;;;;5071736;28;20909;-78
2022/04/02 19:54:24;;;;;;;6.25;4.97;;;6.40;52.10;;;;;;5072330;28;20083;-79
2022/04/02 19:56:49;;;;;;;7.60;3.28;;;6.40;51.90;;;;;;5070522;28;20029;-78
2022/04/02 19:59:15;;;;;;;3.63;2.53;;;6.40;51.90;;;;;;5073124;28;20028;-79
2022/04/02 20:01:44;;;;;;;5.60;2.50;;;6.40;51.90;;;;;;5062667;28;20399;-79
2022/04/02 20:04:09;;;;;;;4.22;2.42;;;6.30;51.90;;;;;;5070247;28;20024;-80
2022/04/02 20:06:35;;;;;;;2.67;2.15;;;6.20;52.00;;;;;;5074953;28;20016;-80
2022/04/02 20:09:02;;;;;;;4.30;1.92;;;6.20;52.10;;;;;;5075313;28;20105;-80
2022/04/02 20:11:28;;;;;;;3.67;2.13;;;6.30;52.00;;;;;;5070408;28;20031;-80
2022/04/02 20:13:53;;;;;;;3.35;2.20;;;6.20;51.80;;;;;;5061697;28;20442;-80
2022/04/02 20:16:20;;;;;;;6.55;2.53;;;6.20;51.40;;;;;;5075510;28;20066;-79
2022/04/02 20:18:46;;;;;;;7.05;2.45;;;6.20;51.90;;;;;;5072345;28;20035;-80
2022/04/02 20:21:14;;;;;;;9.60;2.63;;;6.10;51.80;;;;;;5073053;28;20083;-78
2022/04/02 20:23:40;;;;;;;5.07;2.58;;;6.10;51.90;;;;;;5069602;28;20170;-79
2022/04/02 20:26:06;;;;;;;8.43;3.30;;;5.90;51.70;;;;;;5075037;28;20028;-79
2022/04/02 20:28:32;;;;;;;7.43;3.60;;;6.00;51.90;;;;;;5076797;28;20522;-80
2022/04/02 20:30:58;;;;;;;4.43;3.15;;;5.80;52.60;;;;;;5074044;28;20029;-79
2022/04/02 20:33:24;;;;;;;5.38;2.80;;;5.80;52.30;;;;;;5075325;28;20047;-80
2022/04/02 20:35:50;;;;;;;7.32;3.20;;;5.80;52.40;;;;;;5075260;28;20027;-80
2022/04/02 20:38:16;;;;;;;7.88;3.50;;;6.00;52.00;;;;;;5075811;28;20444;-80
2022/04/02 20:40:42;;;;;;;7.40;3.17;;;5.90;52.10;;;;;;5088881;28;20027;-81
2022/04/02 20:43:08;;;;;;;6.22;3.40;;;5.90;51.50;;;;;;5074236;28;20039;-80
2022/04/02 20:45:34;;;;;;;7.20;3.53;;;5.90;51.70;;;;;;5075555;28;20074;-80
2022/04/02 20:48:00;;;;;;;7.25;3.30;;;5.80;51.70;;;;;;5063140;28;20879;-79
2022/04/02 20:50:27;;;;;;;4.85;2.60;;;5.70;51.50;;;;;;5085309;28;20063;-79
2022/04/02 20:52:53;;;;;;;6.25;2.72;;;5.80;51.90;;;;;;5068703;28;20012;-80
2022/04/02 20:55:18;;;;;;;4.97;2.90;;;5.70;51.40;;;;;;5083651;28;20555;-79
2022/04/02 20:57:44;;;;;;;5.90;2.50;;;5.70;51.60;;;;;;5064252;28;20090;-79
2022/04/02 21:00:12;;;;;;;4.82;2.40;;;5.70;51.30;;;;;;5071504;28;20033;-79
2022/04/02 21:02:38;;;;;;;4.75;2.20;;;5.60;51.10;;;;;;5073441;28;20020;-78
2022/04/02 21:05:05;;;;;;;4.90;2.22;;;5.50;51.60;;;;;;5062710;28;20025;-79
2022/04/02 21:07:31;;;;;;;4.78;2.60;;;5.50;51.50;;;;;;5064477;28;20670;-79
2022/04/02 21:09:57;;;;;;;3.50;2.70;;;5.60;51.70;;;;;;5072490;28;20051;-79
2022/04/02 21:12:23;;;;;;;7.70;3.22;;;5.60;51.70;;;;;;5075520;28;20029;-79
2022/04/02 21:14:49;;;;;;;4.07;2.90;;;5.70;51.30;;;;;;5075290;28;20068;-79
2022/04/02 21:17:14;;;;;;;4.45;2.92;;;5.50;51.50;;;;;;5076464;28;20017;-79
2022/04/02 21:19:40;;;;;;;4.97;2.17;;;5.40;51.70;;;;;;5077140;28;20036;-79
2022/04/02 21:22:06;;;;;;;3.80;2.50;;;5.30;52.10;;;;;;5075663;28;20540;-79
2022/04/02 21:24:32;;;;;;;3.10;2.15;;;5.30;51.80;;;;;;5075789;28;20498;-79
2022/04/02 21:26:58;;;;;;;5.78;3.25;;;5.50;54.10;;;;;;5076882;28;20020;-79
2022/04/02 21:29:24;;;;;;;6.53;2.90;;;5.50;54.30;;;;;;5069905;28;20032;-79
2022/04/02 21:31:51;;;;;;;4.63;2.47;;;5.50;54.20;;;;;;5075575;28;20025;-79
2022/04/02 21:34:17;;;;;;;3.38;2.35;;;5.50;54.90;;;;;;5076581;28;20110;-79
2022/04/02 21:36:43;;;;;;;6.25;2.92;;;5.40;55.60;;;;;;5073267;28;20052;-79
2022/04/02 21:39:09;;;;;;;6.93;3.20;;;5.40;54.80;;;;;;5075335;28;20103;-80
2022/04/02 21:41:36;;;;;;;5.65;3.15;;;5.50;54.10;;;;;;5063982;28;20047;-79
2022/04/02 21:44:03;;;;;;;4.95;2.78;;;5.50;54.90;;;;;;5072928;28;20447;-81
2022/04/02 21:46:28;;;;;;;7.78;3.80;;;5.50;55.00;;;;;;5074270;28;20387;-80
2022/04/02 21:48:54;;;;;;;3.83;2.63;;;5.50;54.00;;;;;;5070696;28;20111;-81
2022/04/02 21:51:20;;;;;;;5.25;2.88;;;5.50;55.80;;;;;;5065190;28;20028;-81
2022/04/02 21:53:46;;;;;;;6.25;3.03;;;5.40;56.40;;;;;;5069873;28;20032;-81
2022/04/02 21:56:11;;;;;;;3.10;2.70;;;5.40;56.50;;;;;;5063341;28;20040;-81
2022/04/02 21:58:37;;;;;;;4.60;2.78;;;5.30;55.60;;;;;;5055326;28;20083;-81
2022/04/02 22:01:12;;;;;;;4.38;2.47;;;5.40;55.10;;;;;;5072845;28;20032;-81